sensor_id;sensor_type;location;lat;lon;timestamp;P1;durP1;ratioP1;P2;durP2;ratioP2
48733;SDS011;34530;52.084;5.146;2022-07-25T00:02:17;8.48;;;5.10;;
48733;SDS011;34530;52.084;5.146;2022-07-25T00:04:43;9.20;;;4.70;;
48733;SDS011;34530;52.084;5.146;2022-07-25T00:07:08;5.05;;;4.30;;
48733;SDS011;34530;52.084;5.146;2022-07-25T00:09:34;9.38;;;5.20;;
48733;SDS011;34530;52.084;5.146;2022-07-25T00:11:59;5.85;;;5.25;;
48733;SDS011;34530;52.084;5.146;2022-07-25T00:14:25;6.70;;;5.03;;
48733;SDS011;34530;52.084;5.146;2022-07-25T00:16:51;6.10;;;4.90;;
48733;SDS011;34530;52.084;5.146;2022-07-25T00:19:17;7.85;;;5.15;;
48733;SDS011;34530;52.084;5.146;2022-07-25T00:21:42;6.70;;;5.20;;
48733;SDS011;34530;52.084;5.146;2022-07-25T00:24:08;9.95;;;5.18;;
48733;SDS011;34530;52.084;5.146;2022-07-25T00:26:34;6.80;;;6.05;;
48733;SDS011;34530;52.084;5.146;2022-07-25T00:28:59;6.63;;;5.32;;
48733;SDS011;34530;52.084;5.146;2022-07-25T00:31:25;7.60;;;5.95;;
48733;SDS011;34530;52.084;5.146;2022-07-25T00:33:51;7.97;;;5.45;;
48733;SDS011;34530;52.084;5.146;2022-07-25T00:36:16;8.00;;;5.88;;
48733;SDS011;34530;52.084;5.146;2022-07-25T00:38:42;9.68;;;5.78;;
48733;SDS011;34530;52.084;5.146;2022-07-25T00:41:08;8.07;;;5.88;;
48733;SDS011;34530;52.084;5.146;2022-07-25T00:43:33;8.65;;;5.93;;
48733;SDS011;34530;52.084;5.146;2022-07-25T00:45:59;8.35;;;5.30;;
48733;SDS011;34530;52.084;5.146;2022-07-25T00:48:28;6.43;;;5.50;;
48733;SDS011;34530;52.084;5.146;2022-07-25T00:50:54;6.85;;;5.75;;
48733;SDS011;34530;52.084;5.146;2022-07-25T00:53:21;8.07;;;6.43;;
48733;SDS011;34530;52.084;5.146;2022-07-25T00:55:46;10.05;;;5.90;;
48733;SDS011;34530;52.084;5.146;2022-07-25T00:58:12;5.60;;;4.18;;
48733;SDS011;34530;52.084;5.146;2022-07-25T01:00:38;7.40;;;4.53;;
48733;SDS011;34530;52.084;5.146;2022-07-25T01:03:04;6.80;;;4.97;;
48733;SDS011;34530;52.084;5.146;2022-07-25T01:05:29;8.75;;;4.90;;
48733;SDS011;34530;52.084;5.146;2022-07-25T01:07:55;6.82;;;5.03;;
48733;SDS011;34530;52.084;5.146;2022-07-25T01:10:21;5.32;;;4.50;;
48733;SDS011;34530;52.084;5.146;2022-07-25T01:12:49;8.30;;;5.20;;
48733;SDS011;34530;52.084;5.146;2022-07-25T01:15:17;6.45;;;4.47;;
48733;SDS011;34530;52.084;5.146;2022-07-25T01:17:43;4.63;;;4.22;;
48733;SDS011;34530;52.084;5.146;2022-07-25T01:20:16;6.07;;;4.38;;
48733;SDS011;34530;52.084;5.146;2022-07-25T01:22:49;6.03;;;4.28;;
48733;SDS011;34530;52.084;5.146;2022-07-25T01:25:16;5.28;;;3.75;;
48733;SDS011;34530;52.084;5.146;2022-07-25T01:27:42;7.30;;;4.50;;
48733;SDS011;34530;52.084;5.146;2022-07-25T01:30:08;6.82;;;4.28;;
48733;SDS011;34530;52.084;5.146;2022-07-25T01:32:36;4.70;;;4.20;;
48733;SDS011;34530;52.084;5.146;2022-07-25T01:35:04;5.32;;;4.38;;
48733;SDS011;34530;52.084;5.146;2022-07-25T01:37:31;9.43;;;5.03;;
48733;SDS011;34530;52.084;5.146;2022-07-25T01:39:57;6.88;;;4.80;;
48733;SDS011;34530;52.084;5.146;2022-07-25T01:42:22;6.60;;;4.88;;
48733;SDS011;34530;52.084;5.146;2022-07-25T01:44:48;6.57;;;5.00;;
48733;SDS011;34530;52.084;5.146;2022-07-25T01:47:13;4.78;;;4.25;;
48733;SDS011;34530;52.084;5.146;2022-07-25T01:49:41;4.40;;;3.83;;
48733;SDS011;34530;52.084;5.146;2022-07-25T01:52:08;6.13;;;5.07;;
48733;SDS011;34530;52.084;5.146;2022-07-25T01:54:33;5.10;;;4.25;;
48733;SDS011;34530;52.084;5.146;2022-07-25T01:56:59;5.47;;;4.97;;
48733;SDS011;34530;52.084;5.146;2022-07-25T01:59:25;5.38;;;4.88;;
48733;SDS011;34530;52.084;5.146;2022-07-25T02:01:50;6.25;;;4.50;;
48733;SDS011;34530;52.084;5.146;2022-07-25T02:04:16;8.43;;;4.80;;
48733;SDS011;34530;52.084;5.146;2022-07-25T02:06:41;7.47;;;4.97;;
48733;SDS011;34530;52.084;5.146;2022-07-25T02:09:07;5.78;;;4.22;;
48733;SDS011;34530;52.084;5.146;2022-07-25T02:11:33;4.68;;;4.20;;
48733;SDS011;34530;52.084;5.146;2022-07-25T02:13:59;4.50;;;3.65;;
48733;SDS011;34530;52.084;5.146;2022-07-25T02:16:26;7.32;;;4.65;;
48733;SDS011;34530;52.084;5.146;2022-07-25T02:18:52;8.80;;;5.10;;
48733;SDS011;34530;52.084;5.146;2022-07-25T02:21:18;6.40;;;5.80;;
48733;SDS011;34530;52.084;5.146;2022-07-25T02:23:45;5.70;;;4.40;;
48733;SDS011;34530;52.084;5.146;2022-07-25T02:26:11;4.50;;;4.05;;
48733;SDS011;34530;52.084;5.146;2022-07-25T02:28:37;5.13;;;4.68;;
48733;SDS011;34530;52.084;5.146;2022-07-25T02:31:03;7.28;;;5.43;;
48733;SDS011;34530;52.084;5.146;2022-07-25T02:33:29;8.10;;;6.07;;
48733;SDS011;34530;52.084;5.146;2022-07-25T02:35:55;8.20;;;5.57;;
48733;SDS011;34530;52.084;5.146;2022-07-25T02:38:20;6.00;;;5.43;;
48733;SDS011;34530;52.084;5.146;2022-07-25T02:40:46;5.32;;;4.82;;
48733;SDS011;34530;52.084;5.146;2022-07-25T02:43:13;6.80;;;5.20;;
48733;SDS011;34530;52.084;5.146;2022-07-25T02:45:39;11.27;;;5.43;;
48733;SDS011;34530;52.084;5.146;2022-07-25T02:48:05;7.70;;;5.50;;
48733;SDS011;34530;52.084;5.146;2022-07-25T02:50:30;9.75;;;5.80;;
48733;SDS011;34530;52.084;5.146;2022-07-25T02:52:56;5.35;;;4.85;;
48733;SDS011;34530;52.084;5.146;2022-07-25T02:55:22;4.80;;;4.30;;
48733;SDS011;34530;52.084;5.146;2022-07-25T02:57:47;6.15;;;5.40;;
48733;SDS011;34530;52.084;5.146;2022-07-25T03:00:13;5.70;;;5.20;;
48733;SDS011;34530;52.084;5.146;2022-07-25T03:02:39;5.97;;;5.38;;
48733;SDS011;34530;52.084;5.146;2022-07-25T03:05:06;6.07;;;5.43;;
48733;SDS011;34530;52.084;5.146;2022-07-25T03:07:33;5.60;;;5.10;;
48733;SDS011;34530;52.084;5.146;2022-07-25T03:09:59;6.70;;;6.00;;
48733;SDS011;34530;52.084;5.146;2022-07-25T03:12:24;9.10;;;6.60;;
48733;SDS011;34530;52.084;5.146;2022-07-25T03:14:50;6.88;;;5.93;;
48733;SDS011;34530;52.084;5.146;2022-07-25T03:17:15;10.23;;;6.43;;
48733;SDS011;34530;52.084;5.146;2022-07-25T03:19:41;5.70;;;5.20;;
48733;SDS011;34530;52.084;5.146;2022-07-25T03:22:06;6.93;;;6.07;;
48733;SDS011;34530;52.084;5.146;2022-07-25T03:24:32;7.00;;;6.30;;
48733;SDS011;34530;52.084;5.146;2022-07-25T03:26:58;8.73;;;6.43;;
48733;SDS011;34530;52.084;5.146;2022-07-25T03:29:23;8.93;;;5.90;;
48733;SDS011;34530;52.084;5.146;2022-07-25T03:31:49;7.93;;;6.50;;
48733;SDS011;34530;52.084;5.146;2022-07-25T03:34:14;9.93;;;6.97;;
48733;SDS011;34530;52.084;5.146;2022-07-25T03:36:40;14.77;;;7.93;;
48733;SDS011;34530;52.084;5.146;2022-07-25T03:39:05;8.80;;;6.63;;
48733;SDS011;34530;52.084;5.146;2022-07-25T03:41:31;8.38;;;5.70;;
48733;SDS011;34530;52.084;5.146;2022-07-25T03:43:57;8.02;;;6.82;;
48733;SDS011;34530;52.084;5.146;2022-07-25T03:46:23;10.05;;;6.30;;
48733;SDS011;34530;52.084;5.146;2022-07-25T03:48:48;6.47;;;5.82;;
48733;SDS011;34530;52.084;5.146;2022-07-25T03:51:14;6.47;;;5.72;;
48733;SDS011;34530;52.084;5.146;2022-07-25T03:53:39;9.43;;;6.95;;
48733;SDS011;34530;52.084;5.146;2022-07-25T03:56:36;9.60;;;5.70;;
48733;SDS011;34530;52.084;5.146;2022-07-25T03:59:04;6.68;;;5.97;;
48733;SDS011;34530;52.084;5.146;2022-07-25T04:01:31;6.93;;;6.25;;
48733;SDS011;34530;52.084;5.146;2022-07-25T04:03:57;8.07;;;6.18;;
48733;SDS011;34530;52.084;5.146;2022-07-25T04:06:22;7.85;;;7.00;;
48733;SDS011;34530;52.084;5.146;2022-07-25T04:08:49;7.60;;;5.68;;
48733;SDS011;34530;52.084;5.146;2022-07-25T04:11:15;7.50;;;5.63;;
48733;SDS011;34530;52.084;5.146;2022-07-25T04:13:40;8.35;;;6.22;;
48733;SDS011;34530;52.084;5.146;2022-07-25T04:16:06;6.03;;;5.32;;
48733;SDS011;34530;52.084;5.146;2022-07-25T04:18:32;6.72;;;5.53;;
48733;SDS011;34530;52.084;5.146;2022-07-25T04:20:58;9.15;;;5.68;;
48733;SDS011;34530;52.084;5.146;2022-07-25T04:23:24;7.70;;;5.50;;
48733;SDS011;34530;52.084;5.146;2022-07-25T04:25:50;9.77;;;6.65;;
48733;SDS011;34530;52.084;5.146;2022-07-25T04:28:15;7.07;;;5.68;;
48733;SDS011;34530;52.084;5.146;2022-07-25T04:30:41;8.55;;;6.03;;
48733;SDS011;34530;52.084;5.146;2022-07-25T04:33:09;6.30;;;5.70;;
48733;SDS011;34530;52.084;5.146;2022-07-25T04:35:38;6.68;;;5.57;;
48733;SDS011;34530;52.084;5.146;2022-07-25T04:38:04;8.50;;;6.28;;
48733;SDS011;34530;52.084;5.146;2022-07-25T04:40:30;6.07;;;5.47;;
48733;SDS011;34530;52.084;5.146;2022-07-25T04:42:56;8.85;;;5.95;;
48733;SDS011;34530;52.084;5.146;2022-07-25T04:45:22;7.97;;;5.90;;
48733;SDS011;34530;52.084;5.146;2022-07-25T04:47:48;6.80;;;5.78;;
48733;SDS011;34530;52.084;5.146;2022-07-25T04:50:14;6.07;;;5.47;;
48733;SDS011;34530;52.084;5.146;2022-07-25T04:52:40;10.85;;;6.57;;
48733;SDS011;34530;52.084;5.146;2022-07-25T04:55:06;7.07;;;5.95;;
48733;SDS011;34530;52.084;5.146;2022-07-25T04:57:32;10.32;;;5.93;;
48733;SDS011;34530;52.084;5.146;2022-07-25T04:59:58;6.45;;;5.78;;
48733;SDS011;34530;52.084;5.146;2022-07-25T05:02:24;6.60;;;5.70;;
48733;SDS011;34530;52.084;5.146;2022-07-25T05:04:50;6.90;;;5.53;;
48733;SDS011;34530;52.084;5.146;2022-07-25T05:07:15;8.93;;;6.03;;
48733;SDS011;34530;52.084;5.146;2022-07-25T05:09:41;6.75;;;6.07;;
48733;SDS011;34530;52.084;5.146;2022-07-25T05:12:07;10.48;;;6.85;;
48733;SDS011;34530;52.084;5.146;2022-07-25T05:14:33;7.32;;;6.32;;
48733;SDS011;34530;52.084;5.146;2022-07-25T05:16:58;10.00;;;5.85;;
48733;SDS011;34530;52.084;5.146;2022-07-25T05:19:24;7.78;;;6.40;;
48733;SDS011;34530;52.084;5.146;2022-07-25T05:21:50;9.32;;;6.55;;
48733;SDS011;34530;52.084;5.146;2022-07-25T05:24:16;8.55;;;6.40;;
48733;SDS011;34530;52.084;5.146;2022-07-25T05:26:41;10.02;;;7.07;;
48733;SDS011;34530;52.084;5.146;2022-07-25T05:29:07;7.70;;;6.32;;
48733;SDS011;34530;52.084;5.146;2022-07-25T05:31:34;9.27;;;6.25;;
48733;SDS011;34530;52.084;5.146;2022-07-25T05:34:00;7.57;;;5.97;;
48733;SDS011;34530;52.084;5.146;2022-07-25T05:36:26;9.32;;;6.80;;
48733;SDS011;34530;52.084;5.146;2022-07-25T05:38:52;8.23;;;6.47;;
48733;SDS011;34530;52.084;5.146;2022-07-25T05:41:18;7.57;;;6.78;;
48733;SDS011;34530;52.084;5.146;2022-07-25T05:43:44;12.13;;;6.93;;
48733;SDS011;34530;52.084;5.146;2022-07-25T05:46:11;11.57;;;7.65;;
48733;SDS011;34530;52.084;5.146;2022-07-25T05:48:37;11.32;;;7.78;;
48733;SDS011;34530;52.084;5.146;2022-07-25T05:51:03;10.07;;;7.72;;
48733;SDS011;34530;52.084;5.146;2022-07-25T05:53:29;10.80;;;8.20;;
48733;SDS011;34530;52.084;5.146;2022-07-25T05:55:54;10.05;;;7.22;;
48733;SDS011;34530;52.084;5.146;2022-07-25T05:58:20;12.65;;;7.60;;
48733;SDS011;34530;52.084;5.146;2022-07-25T06:00:47;8.57;;;7.07;;
48733;SDS011;34530;52.084;5.146;2022-07-25T06:03:14;14.25;;;6.90;;
48733;SDS011;34530;52.084;5.146;2022-07-25T06:05:41;7.72;;;6.93;;
48733;SDS011;34530;52.084;5.146;2022-07-25T06:08:07;11.90;;;7.63;;
48733;SDS011;34530;52.084;5.146;2022-07-25T06:10:33;8.65;;;6.30;;
48733;SDS011;34530;52.084;5.146;2022-07-25T06:12:58;10.07;;;6.20;;
48733;SDS011;34530;52.084;5.146;2022-07-25T06:15:24;6.50;;;5.32;;
48733;SDS011;34530;52.084;5.146;2022-07-25T06:17:49;6.65;;;4.97;;
48733;SDS011;34530;52.084;5.146;2022-07-25T06:20:15;7.25;;;5.43;;
48733;SDS011;34530;52.084;5.146;2022-07-25T06:22:41;5.90;;;4.88;;
48733;SDS011;34530;52.084;5.146;2022-07-25T06:25:06;5.40;;;4.47;;
48733;SDS011;34530;52.084;5.146;2022-07-25T06:27:32;10.10;;;4.22;;
48733;SDS011;34530;52.084;5.146;2022-07-25T06:29:59;6.13;;;4.38;;
48733;SDS011;34530;52.084;5.146;2022-07-25T06:32:26;6.55;;;4.00;;
48733;SDS011;34530;52.084;5.146;2022-07-25T06:34:52;4.55;;;3.63;;
48733;SDS011;34530;52.084;5.146;2022-07-25T06:37:18;7.32;;;3.70;;
48733;SDS011;34530;52.084;5.146;2022-07-25T06:39:44;6.88;;;3.80;;
48733;SDS011;34530;52.084;5.146;2022-07-25T06:42:09;6.32;;;3.53;;
48733;SDS011;34530;52.084;5.146;2022-07-25T06:44:35;5.55;;;3.30;;
48733;SDS011;34530;52.084;5.146;2022-07-25T06:47:01;3.92;;;2.60;;
48733;SDS011;34530;52.084;5.146;2022-07-25T06:49:27;3.92;;;2.60;;
48733;SDS011;34530;52.084;5.146;2022-07-25T06:51:52;3.78;;;2.90;;
48733;SDS011;34530;52.084;5.146;2022-07-25T06:54:18;5.47;;;2.80;;
48733;SDS011;34530;52.084;5.146;2022-07-25T06:56:44;3.60;;;2.67;;
48733;SDS011;34530;52.084;5.146;2022-07-25T06:59:10;5.40;;;3.00;;
48733;SDS011;34530;52.084;5.146;2022-07-25T07:01:36;4.18;;;2.30;;
48733;SDS011;34530;52.084;5.146;2022-07-25T07:04:01;4.53;;;2.03;;
48733;SDS011;34530;52.084;5.146;2022-07-25T07:06:28;4.35;;;2.22;;
48733;SDS011;34530;52.084;5.146;2022-07-25T07:08:53;3.95;;;2.03;;
48733;SDS011;34530;52.084;5.146;2022-07-25T07:11:20;4.47;;;1.90;;
48733;SDS011;34530;52.084;5.146;2022-07-25T07:13:45;2.63;;;1.70;;
48733;SDS011;34530;52.084;5.146;2022-07-25T07:16:11;3.03;;;1.75;;
48733;SDS011;34530;52.084;5.146;2022-07-25T07:18:37;6.80;;;1.85;;
48733;SDS011;34530;52.084;5.146;2022-07-25T07:21:03;3.72;;;2.03;;
48733;SDS011;34530;52.084;5.146;2022-07-25T07:23:29;7.63;;;2.20;;
48733;SDS011;34530;52.084;5.146;2022-07-25T07:25:55;8.43;;;2.40;;
48733;SDS011;34530;52.084;5.146;2022-07-25T07:28:21;6.13;;;2.20;;
48733;SDS011;34530;52.084;5.146;2022-07-25T07:30:47;4.47;;;1.88;;
48733;SDS011;34530;52.084;5.146;2022-07-25T07:33:12;4.85;;;1.83;;
48733;SDS011;34530;52.084;5.146;2022-07-25T07:35:38;6.38;;;1.88;;
48733;SDS011;34530;52.084;5.146;2022-07-25T07:38:07;5.57;;;1.70;;
48733;SDS011;34530;52.084;5.146;2022-07-25T07:40:33;2.42;;;1.63;;
48733;SDS011;34530;52.084;5.146;2022-07-25T07:42:58;7.95;;;2.15;;
48733;SDS011;34530;52.084;5.146;2022-07-25T07:45:26;4.82;;;1.90;;
48733;SDS011;34530;52.084;5.146;2022-07-25T07:47:52;3.85;;;1.55;;
48733;SDS011;34530;52.084;5.146;2022-07-25T07:50:20;5.28;;;1.60;;
48733;SDS011;34530;52.084;5.146;2022-07-25T07:52:47;3.25;;;1.80;;
48733;SDS011;34530;52.084;5.146;2022-07-25T07:55:13;2.70;;;1.50;;
48733;SDS011;34530;52.084;5.146;2022-07-25T07:57:58;8.77;;;1.95;;
48733;SDS011;34530;52.084;5.146;2022-07-25T08:00:24;7.65;;;2.35;;
48733;SDS011;34530;52.084;5.146;2022-07-25T08:02:59;3.35;;;1.60;;
48733;SDS011;34530;52.084;5.146;2022-07-25T08:05:30;4.90;;;1.67;;
48733;SDS011;34530;52.084;5.146;2022-07-25T08:07:59;3.42;;;1.60;;
48733;SDS011;34530;52.084;5.146;2022-07-25T08:10:29;3.22;;;1.40;;
48733;SDS011;34530;52.084;5.146;2022-07-25T08:12:57;2.97;;;1.20;;
48733;SDS011;34530;52.084;5.146;2022-07-25T08:15:23;6.53;;;1.85;;
48733;SDS011;34530;52.084;5.146;2022-07-25T08:17:49;3.53;;;1.73;;
48733;SDS011;34530;52.084;5.146;2022-07-25T08:20:16;3.10;;;1.58;;
48733;SDS011;34530;52.084;5.146;2022-07-25T08:22:43;4.03;;;1.75;;
48733;SDS011;34530;52.084;5.146;2022-07-25T08:25:14;4.55;;;1.80;;
48733;SDS011;34530;52.084;5.146;2022-07-25T08:27:41;5.28;;;1.88;;
48733;SDS011;34530;52.084;5.146;2022-07-25T08:30:07;5.68;;;1.70;;
48733;SDS011;34530;52.084;5.146;2022-07-25T08:32:44;4.38;;;1.50;;
48733;SDS011;34530;52.084;5.146;2022-07-25T08:35:24;5.13;;;1.65;;
48733;SDS011;34530;52.084;5.146;2022-07-25T08:37:50;8.50;;;2.20;;
48733;SDS011;34530;52.084;5.146;2022-07-25T08:40:17;10.20;;;2.50;;
48733;SDS011;34530;52.084;5.146;2022-07-25T08:42:44;10.07;;;2.55;;
48733;SDS011;34530;52.084;5.146;2022-07-25T08:45:10;7.70;;;2.17;;
48733;SDS011;34530;52.084;5.146;2022-07-25T08:47:38;8.15;;;2.05;;
48733;SDS011;34530;52.084;5.146;2022-07-25T08:50:06;10.07;;;2.63;;
48733;SDS011;34530;52.084;5.146;2022-07-25T08:52:34;4.38;;;1.98;;
48733;SDS011;34530;52.084;5.146;2022-07-25T08:55:01;6.85;;;1.77;;
48733;SDS011;34530;52.084;5.146;2022-07-25T08:57:29;6.72;;;1.77;;
48733;SDS011;34530;52.084;5.146;2022-07-25T08:59:57;10.55;;;2.30;;
48733;SDS011;34530;52.084;5.146;2022-07-25T09:02:26;7.55;;;2.30;;
48733;SDS011;34530;52.084;5.146;2022-07-25T09:04:53;8.52;;;2.28;;
48733;SDS011;34530;52.084;5.146;2022-07-25T09:07:33;4.57;;;1.70;;
48733;SDS011;34530;52.084;5.146;2022-07-25T09:10:13;6.43;;;1.92;;
48733;SDS011;34530;52.084;5.146;2022-07-25T09:12:41;8.73;;;2.28;;
48733;SDS011;34530;52.084;5.146;2022-07-25T09:17:53;8.38;;;2.08;;
48733;SDS011;34530;52.084;5.146;2022-07-25T09:20:20;6.45;;;2.17;;
48733;SDS011;34530;52.084;5.146;2022-07-25T09:22:46;61.47;;;15.00;;
48733;SDS011;34530;52.084;5.146;2022-07-25T09:25:19;35.50;;;8.32;;
48733;SDS011;34530;52.084;5.146;2022-07-25T09:27:49;20.85;;;5.35;;
48733;SDS011;34530;52.084;5.146;2022-07-25T09:30:15;8.85;;;2.70;;
48733;SDS011;34530;52.084;5.146;2022-07-25T09:32:41;7.15;;;2.20;;
48733;SDS011;34530;52.084;5.146;2022-07-25T09:35:07;7.88;;;2.78;;
48733;SDS011;34530;52.084;5.146;2022-07-25T09:37:33;8.55;;;2.47;;
48733;SDS011;34530;52.084;5.146;2022-07-25T09:39:59;6.45;;;2.10;;
48733;SDS011;34530;52.084;5.146;2022-07-25T09:42:28;5.47;;;1.92;;
48733;SDS011;34530;52.084;5.146;2022-07-25T09:45:09;7.70;;;1.80;;
48733;SDS011;34530;52.084;5.146;2022-07-25T09:47:55;9.02;;;2.40;;
48733;SDS011;34530;52.084;5.146;2022-07-25T09:50:24;5.85;;;2.00;;
48733;SDS011;34530;52.084;5.146;2022-07-25T09:52:51;5.82;;;2.30;;
48733;SDS011;34530;52.084;5.146;2022-07-25T09:55:19;6.63;;;2.10;;
48733;SDS011;34530;52.084;5.146;2022-07-25T09:57:46;6.30;;;2.30;;
48733;SDS011;34530;52.084;5.146;2022-07-25T10:00:13;7.75;;;2.40;;
48733;SDS011;34530;52.084;5.146;2022-07-25T10:02:46;6.05;;;2.33;;
48733;SDS011;34530;52.084;5.146;2022-07-25T10:08:04;9.48;;;2.40;;
48733;SDS011;34530;52.084;5.146;2022-07-25T10:10:32;3.47;;;1.83;;
48733;SDS011;34530;52.084;5.146;2022-07-25T10:13:03;7.22;;;2.15;;
48733;SDS011;34530;52.084;5.146;2022-07-25T10:15:38;9.30;;;2.60;;
48733;SDS011;34530;52.084;5.146;2022-07-25T10:18:08;5.10;;;2.20;;
48733;SDS011;34530;52.084;5.146;2022-07-25T10:20:35;7.30;;;2.10;;
48733;SDS011;34530;52.084;5.146;2022-07-25T10:23:01;4.63;;;1.80;;
48733;SDS011;34530;52.084;5.146;2022-07-25T10:25:27;6.07;;;2.30;;
48733;SDS011;34530;52.084;5.146;2022-07-25T10:27:54;5.72;;;2.13;;
48733;SDS011;34530;52.084;5.146;2022-07-25T10:30:32;6.35;;;2.10;;
48733;SDS011;34530;52.084;5.146;2022-07-25T10:33:03;4.93;;;2.03;;
48733;SDS011;34530;52.084;5.146;2022-07-25T10:35:30;6.72;;;2.28;;
48733;SDS011;34530;52.084;5.146;2022-07-25T10:37:57;7.50;;;1.90;;
48733;SDS011;34530;52.084;5.146;2022-07-25T10:40:27;8.18;;;2.20;;
48733;SDS011;34530;52.084;5.146;2022-07-25T10:45:42;10.80;;;2.80;;
48733;SDS011;34530;52.084;5.146;2022-07-25T10:48:19;8.50;;;2.40;;
48733;SDS011;34530;52.084;5.146;2022-07-25T10:56:08;7.13;;;2.50;;
48733;SDS011;34530;52.084;5.146;2022-07-25T10:59:10;6.45;;;2.03;;
48733;SDS011;34530;52.084;5.146;2022-07-25T11:01:32;7.50;;;2.50;;
48733;SDS011;34530;52.084;5.146;2022-07-25T11:04:03;7.40;;;2.63;;
48733;SDS011;34530;52.084;5.146;2022-07-25T11:06:38;9.35;;;3.05;;
48733;SDS011;34530;52.084;5.146;2022-07-25T11:11:52;7.95;;;3.03;;
48733;SDS011;34530;52.084;5.146;2022-07-25T11:14:27;9.20;;;2.72;;
48733;SDS011;34530;52.084;5.146;2022-07-25T11:16:56;9.57;;;2.75;;
48733;SDS011;34530;52.084;5.146;2022-07-25T11:19:33;8.63;;;2.58;;
48733;SDS011;34530;52.084;5.146;2022-07-25T11:21:59;8.38;;;2.97;;
48733;SDS011;34530;52.084;5.146;2022-07-25T11:24:41;9.02;;;3.20;;
48733;SDS011;34530;52.084;5.146;2022-07-25T11:27:08;11.40;;;4.60;;
48733;SDS011;34530;52.084;5.146;2022-07-25T11:29:49;8.48;;;3.33;;
48733;SDS011;34530;52.084;5.146;2022-07-25T11:32:14;12.02;;;3.00;;
48733;SDS011;34530;52.084;5.146;2022-07-25T11:34:41;10.23;;;2.92;;
48733;SDS011;34530;52.084;5.146;2022-07-25T11:37:11;10.18;;;3.25;;
48733;SDS011;34530;52.084;5.146;2022-07-25T11:39:37;11.43;;;2.85;;
48733;SDS011;34530;52.084;5.146;2022-07-25T11:42:05;11.48;;;3.15;;
48733;SDS011;34530;52.084;5.146;2022-07-25T11:44:37;12.68;;;3.00;;
48733;SDS011;34530;52.084;5.146;2022-07-25T11:47:23;11.10;;;3.33;;
48733;SDS011;34530;52.084;5.146;2022-07-25T11:49:51;6.70;;;2.78;;
48733;SDS011;34530;52.084;5.146;2022-07-25T11:52:21;12.23;;;2.88;;
48733;SDS011;34530;52.084;5.146;2022-07-25T11:54:49;11.82;;;2.85;;
48733;SDS011;34530;52.084;5.146;2022-07-25T11:57:24;7.63;;;2.63;;
48733;SDS011;34530;52.084;5.146;2022-07-25T11:59:51;10.35;;;3.40;;
48733;SDS011;34530;52.084;5.146;2022-07-25T12:02:24;9.15;;;2.83;;
48733;SDS011;34530;52.084;5.146;2022-07-25T12:04:56;10.82;;;2.55;;
48733;SDS011;34530;52.084;5.146;2022-07-25T12:07:45;10.80;;;3.33;;
48733;SDS011;34530;52.084;5.146;2022-07-25T12:10:16;9.32;;;2.83;;
48733;SDS011;34530;52.084;5.146;2022-07-25T12:12:50;9.68;;;2.63;;
48733;SDS011;34530;52.084;5.146;2022-07-25T12:17:57;9.93;;;2.83;;
48733;SDS011;34530;52.084;5.146;2022-07-25T12:20:26;13.27;;;3.10;;
48733;SDS011;34530;52.084;5.146;2022-07-25T12:22:54;10.98;;;2.70;;
48733;SDS011;34530;52.084;5.146;2022-07-25T12:25:22;11.30;;;3.05;;
48733;SDS011;34530;52.084;5.146;2022-07-25T12:27:48;8.75;;;2.92;;
48733;SDS011;34530;52.084;5.146;2022-07-25T12:30:14;7.35;;;2.55;;
48733;SDS011;34530;52.084;5.146;2022-07-25T12:32:41;10.25;;;2.38;;
48733;SDS011;34530;52.084;5.146;2022-07-25T12:35:08;11.25;;;2.80;;
48733;SDS011;34530;52.084;5.146;2022-07-25T12:37:35;11.43;;;2.60;;
48733;SDS011;34530;52.084;5.146;2022-07-25T12:40:01;10.68;;;2.50;;
48733;SDS011;34530;52.084;5.146;2022-07-25T12:42:27;7.82;;;2.70;;
48733;SDS011;34530;52.084;5.146;2022-07-25T12:44:53;7.95;;;2.15;;
48733;SDS011;34530;52.084;5.146;2022-07-25T12:47:20;11.73;;;2.50;;
48733;SDS011;34530;52.084;5.146;2022-07-25T12:49:46;10.48;;;2.60;;
48733;SDS011;34530;52.084;5.146;2022-07-25T12:52:12;6.88;;;2.33;;
48733;SDS011;34530;52.084;5.146;2022-07-25T12:54:38;8.40;;;2.47;;
48733;SDS011;34530;52.084;5.146;2022-07-25T12:57:03;8.02;;;1.73;;
48733;SDS011;34530;52.084;5.146;2022-07-25T12:59:29;10.30;;;2.40;;
48733;SDS011;34530;52.084;5.146;2022-07-25T13:01:55;6.13;;;1.77;;
48733;SDS011;34530;52.084;5.146;2022-07-25T13:04:21;10.18;;;2.00;;
48733;SDS011;34530;52.084;5.146;2022-07-25T13:06:46;5.78;;;2.47;;
48733;SDS011;34530;52.084;5.146;2022-07-25T13:09:12;9.85;;;2.38;;
48733;SDS011;34530;52.084;5.146;2022-07-25T13:11:38;9.43;;;2.60;;
48733;SDS011;34530;52.084;5.146;2022-07-25T13:14:03;10.85;;;2.95;;
48733;SDS011;34530;52.084;5.146;2022-07-25T13:16:30;6.25;;;2.72;;
48733;SDS011;34530;52.084;5.146;2022-07-25T13:18:55;9.20;;;3.08;;
48733;SDS011;34530;52.084;5.146;2022-07-25T13:21:21;7.88;;;2.90;;
48733;SDS011;34530;52.084;5.146;2022-07-25T13:23:46;10.38;;;2.92;;
48733;SDS011;34530;52.084;5.146;2022-07-25T13:26:12;11.70;;;3.03;;
48733;SDS011;34530;52.084;5.146;2022-07-25T13:28:38;19.42;;;2.55;;
48733;SDS011;34530;52.084;5.146;2022-07-25T13:31:03;8.43;;;2.50;;
48733;SDS011;34530;52.084;5.146;2022-07-25T13:33:32;10.65;;;2.15;;
48733;SDS011;34530;52.084;5.146;2022-07-25T13:35:58;9.23;;;2.05;;
48733;SDS011;34530;52.084;5.146;2022-07-25T13:38:24;7.32;;;1.90;;
48733;SDS011;34530;52.084;5.146;2022-07-25T13:43:25;7.63;;;1.92;;
48733;SDS011;34530;52.084;5.146;2022-07-25T13:45:50;6.72;;;1.77;;
48733;SDS011;34530;52.084;5.146;2022-07-25T13:48:16;9.23;;;1.60;;
48733;SDS011;34530;52.084;5.146;2022-07-25T13:50:41;10.13;;;2.28;;
48733;SDS011;34530;52.084;5.146;2022-07-25T13:53:07;8.63;;;2.15;;
48733;SDS011;34530;52.084;5.146;2022-07-25T13:55:33;7.88;;;2.75;;
48733;SDS011;34530;52.084;5.146;2022-07-25T13:57:58;12.85;;;2.17;;
48733;SDS011;34530;52.084;5.146;2022-07-25T14:00:24;7.55;;;1.92;;
48733;SDS011;34530;52.084;5.146;2022-07-25T14:02:49;12.50;;;2.17;;
48733;SDS011;34530;52.084;5.146;2022-07-25T14:05:15;11.38;;;2.47;;
48733;SDS011;34530;52.084;5.146;2022-07-25T14:07:41;10.93;;;2.13;;
48733;SDS011;34530;52.084;5.146;2022-07-25T14:10:07;6.80;;;1.98;;
48733;SDS011;34530;52.084;5.146;2022-07-25T14:12:34;11.30;;;2.30;;
48733;SDS011;34530;52.084;5.146;2022-07-25T14:15:00;13.75;;;2.20;;
48733;SDS011;34530;52.084;5.146;2022-07-25T14:17:26;6.82;;;1.85;;
48733;SDS011;34530;52.084;5.146;2022-07-25T14:19:52;12.93;;;2.15;;
48733;SDS011;34530;52.084;5.146;2022-07-25T14:22:18;12.20;;;2.03;;
48733;SDS011;34530;52.084;5.146;2022-07-25T14:24:43;7.47;;;1.88;;
48733;SDS011;34530;52.084;5.146;2022-07-25T14:27:09;7.32;;;1.75;;
48733;SDS011;34530;52.084;5.146;2022-07-25T14:29:35;6.60;;;1.70;;
48733;SDS011;34530;52.084;5.146;2022-07-25T14:32:02;8.10;;;1.38;;
48733;SDS011;34530;52.084;5.146;2022-07-25T14:34:29;5.75;;;1.55;;
48733;SDS011;34530;52.084;5.146;2022-07-25T14:36:54;5.57;;;1.20;;
48733;SDS011;34530;52.084;5.146;2022-07-25T14:39:20;4.35;;;1.38;;
48733;SDS011;34530;52.084;5.146;2022-07-25T14:41:46;5.97;;;1.30;;
48733;SDS011;34530;52.084;5.146;2022-07-25T14:44:11;5.55;;;1.55;;
48733;SDS011;34530;52.084;5.146;2022-07-25T14:46:37;5.38;;;1.17;;
48733;SDS011;34530;52.084;5.146;2022-07-25T14:49:04;4.93;;;1.63;;
48733;SDS011;34530;52.084;5.146;2022-07-25T14:51:30;5.18;;;1.38;;
48733;SDS011;34530;52.084;5.146;2022-07-25T14:53:56;2.72;;;1.10;;
48733;SDS011;34530;52.084;5.146;2022-07-25T14:56:22;8.80;;;1.52;;
48733;SDS011;34530;52.084;5.146;2022-07-25T14:58:48;3.83;;;1.15;;
48733;SDS011;34530;52.084;5.146;2022-07-25T15:01:14;5.10;;;1.20;;
48733;SDS011;34530;52.084;5.146;2022-07-25T15:03:42;7.18;;;1.65;;
48733;SDS011;34530;52.084;5.146;2022-07-25T15:06:08;6.18;;;1.27;;
48733;SDS011;34530;52.084;5.146;2022-07-25T15:08:35;7.43;;;1.83;;